Time;durP1;ratioP1;P1;durP2;ratioP2;P2;SDS_P1;SDS_P2;PMS_P1;PMS_P2;Temp;Humidity;BMP_temperature;BMP_pressure;BME280_temperature;BME280_humidity;BME280_pressure;Samples;Min_cycle;Max_cycle;Signal;HPM_P1;HPM_P2
2022/03/18 00:01:13;;;;;;;12.93;4.68;;;;;;;4.81;69.08;103805.06;7391346;19;20448;-62
2022/03/18 00:03:43;;;;;;;13.43;5.43;;;;;;;5.08;68.54;103802.34;7388591;19;20030;-62
2022/03/18 00:06:16;;;;;;;17.58;6.50;;;;;;;4.94;68.94;103811.47;7389268;19;20029;-62
2022/03/18 00:08:49;;;;;;;17.23;7.80;;;;;;;5.09;68.61;103795.44;7390148;19;20018;-61
2022/03/18 00:11:17;;;;;;;11.60;5.13;;;;;;;5.20;68.08;103804.38;7389220;19;20114;-62
2022/03/18 00:13:46;;;;;;;10.25;4.22;;;;;;;5.23;68.07;103807.09;7389049;19;20038;-59
2022/03/18 00:16:15;;;;;;;12.60;4.18;;;;;;;5.25;68.02;103809.72;7390816;19;20010;-58
2022/03/18 00:18:44;;;;;;;10.93;3.63;;;;;;;5.10;68.60;103808.47;7392219;19;20021;-59
2022/03/18 00:21:13;;;;;;;11.57;3.47;;;;;;;5.14;68.16;103805.13;7388673;19;20455;-60
2022/03/18 00:23:42;;;;;;;9.98;3.38;;;;;;;5.14;67.89;103812.91;7386714;19;20011;-60
2022/03/18 00:26:13;;;;;;;12.80;4.18;;;;;;;5.12;68.16;103817.19;7389724;19;20341;-61
2022/03/18 00:28:42;;;;;;;10.60;3.83;;;;;;;5.17;67.72;103818.19;7389907;19;20480;-60
2022/03/18 00:31:12;;;;;;;9.68;4.00;;;;;;;5.12;67.90;103824.97;7387400;19;20030;-60
2022/03/18 00:33:40;;;;;;;12.77;3.85;;;;;;;4.97;68.36;103822.84;7388503;19;20017;-60
2022/03/18 00:36:09;;;;;;;10.98;3.13;;;;;;;4.93;68.57;103825.28;7389538;19;20018;-59
2022/03/18 00:38:39;;;;;;;12.13;3.47;;;;;;;4.79;69.35;103823.19;7389208;19;20018;-59
2022/03/18 00:41:08;;;;;;;12.00;4.55;;;;;;;4.79;69.16;103820.59;7388695;19;20048;-60
2022/03/18 00:43:40;;;;;;;8.80;3.33;;;;;;;4.59;69.79;103824.34;7387562;19;20399;-60
2022/03/18 00:46:09;;;;;;;9.25;3.80;;;;;;;4.53;70.57;103818.97;7389636;19;20015;-58
2022/03/18 00:54:00;;;;;;;12.18;3.55;;;;;;;4.63;69.73;103844.41;7386952;19;20088;-60
2022/03/18 00:56:30;;;;;;;8.90;3.35;;;;;;;4.58;70.29;103838.16;7389160;19;20351;-55
2022/03/18 00:59:01;;;;;;;10.88;4.10;;;;;;;4.57;70.35;103839.91;7388185;19;20126;-59
2022/03/18 01:01:30;;;;;;;12.00;3.85;;;;;;;4.34;71.17;103846.97;7391580;19;20317;-58
2022/03/18 01:03:59;;;;;;;13.73;4.10;;;;;;;4.35;71.71;103847.88;7382181;19;20029;-59
2022/03/18 01:06:28;;;;;;;13.85;4.30;;;;;;;4.48;71.15;103855.19;7387011;19;20014;-60
2022/03/18 01:08:57;;;;;;;11.07;3.58;;;;;;;4.57;70.59;103864.97;7388199;19;20444;-60
2022/03/18 01:11:26;;;;;;;10.30;3.47;;;;;;;4.63;70.20;103863.44;7387620;19;20018;-59
2022/03/18 01:13:55;;;;;;;7.97;3.58;;;;;;;4.59;70.66;103863.31;7386186;19;20026;-57
2022/03/18 01:16:26;;;;;;;10.55;4.05;;;;;;;4.59;70.76;103868.50;7389000;19;20015;-57
2022/03/18 01:18:55;;;;;;;10.35;3.67;;;;;;;4.63;70.16;103871.22;7388221;19;20026;-59
2022/03/18 01:21:24;;;;;;;10.75;3.53;;;;;;;4.62;70.47;103861.66;7387407;19;20014;-59
2022/03/18 01:23:53;;;;;;;9.52;3.55;;;;;;;4.57;70.29;103850.28;7385546;19;20018;-59
2022/03/18 01:26:24;;;;;;;11.18;3.25;;;;;;;4.39;70.96;103857.50;7388320;19;20021;-59
2022/03/18 01:28:53;;;;;;;10.40;3.67;;;;;;;4.28;71.63;103855.47;7387072;19;20014;-59
2022/03/18 01:31:22;;;;;;;14.48;3.40;;;;;;;4.38;71.88;103863.53;7387531;19;20022;-60
2022/03/18 01:33:54;;;;;;;9.68;3.13;;;;;;;4.52;71.09;103857.03;7386852;19;20019;-56
2022/03/18 01:36:23;;;;;;;14.68;3.60;;;;;;;4.66;70.68;103863.53;7395995;19;20015;-56
2022/03/18 01:38:52;;;;;;;11.48;3.38;;;;;;;4.64;70.63;103861.72;7397325;19;20007;-58
2022/03/18 01:41:21;;;;;;;6.53;3.00;;;;;;;4.60;70.49;103860.75;7395292;19;20337;-57
2022/03/18 01:43:51;;;;;;;9.93;3.75;;;;;;;4.56;70.79;103864.09;7395860;19;20018;-58
2022/03/18 01:46:21;;;;;;;9.73;3.40;;;;;;;4.34;70.93;103857.34;7397501;19;20014;-58
2022/03/18 01:48:53;;;;;;;9.15;3.80;;;;;;;4.16;71.96;103863.72;7398159;19;20015;-58
2022/03/18 01:51:22;;;;;;;9.00;3.38;;;;;;;4.12;72.14;103861.88;7396964;19;20017;-54
2022/03/18 01:54:44;;;;;;;10.18;3.50;;;;;;;3.98;72.96;103856.25;7395238;19;20022;-54
2022/03/18 01:56:41;;;;;;;13.38;3.78;;;;;;;3.87;73.90;103854.13;7396955;19;20018;-54
2022/03/18 01:59:09;;;;;;;8.50;3.30;;;;;;;4.02;73.48;103846.84;7395200;19;20014;-55
2022/03/18 02:01:38;;;;;;;8.93;3.13;;;;;;;3.96;73.44;103852.72;7400579;19;20023;-57
2022/03/18 02:04:12;;;;;;;8.85;3.17;;;;;;;4.19;72.94;103862.09;7394762;19;20014;-58
2022/03/18 02:06:43;;;;;;;10.02;4.10;;;;;;;4.23;72.67;103863.94;7396459;19;20356;-59
2022/03/18 02:09:12;;;;;;;8.23;3.65;;;;;;;4.19;72.72;103862.09;7394665;19;20447;-58
2022/03/18 02:11:42;;;;;;;11.90;4.47;;;;;;;4.20;72.79;103869.00;7394877;19;20019;-57
2022/03/18 02:14:11;;;;;;;13.13;4.70;;;;;;;4.32;72.48;103878.06;7395420;19;20010;-59
2022/03/18 02:16:40;;;;;;;11.18;3.97;;;;;;;4.44;71.53;103874.09;7395333;19;20022;-58
2022/03/18 02:19:12;;;;;;;11.88;3.70;;;;;;;4.35;71.45;103876.41;7394816;19;20014;-58
2022/03/18 02:21:42;;;;;;;8.60;3.03;;;;;;;4.11;71.92;103877.38;7395292;19;20029;-59
2022/03/18 02:24:14;;;;;;;8.55;3.17;;;;;;;4.12;72.42;103876.56;7394569;19;20021;-60
2022/03/18 02:26:42;;;;;;;12.93;3.97;;;;;;;4.24;72.28;103883.84;7394721;19;20026;-58
2022/03/18 02:29:12;;;;;;;9.98;3.55;;;;;;;4.31;71.95;103884.13;7394207;19;20010;-59
2022/03/18 02:31:41;;;;;;;9.48;3.38;;;;;;;4.36;71.91;103888.56;7394322;19;20011;-60
2022/03/18 02:34:09;;;;;;;9.77;3.75;;;;;;;4.19;72.37;103898.41;7392476;19;20015;-58
2022/03/18 02:36:38;;;;;;;11.65;3.15;;;;;;;4.03;72.35;103895.31;7393104;19;20014;-58
2022/03/18 02:39:08;;;;;;;11.25;3.90;;;;;;;4.02;72.40;103893.56;7393152;19;20034;-59
2022/03/18 02:41:39;;;;;;;10.18;3.50;;;;;;;3.95;73.25;103894.19;7393821;19;20022;-58
2022/03/18 02:44:08;;;;;;;14.75;3.83;;;;;;;3.85;73.16;103890.38;7391124;19;20128;-57
2022/03/18 02:46:37;;;;;;;8.68;3.40;;;;;;;3.84;73.22;103893.84;7390412;19;20026;-57
2022/03/18 02:49:08;;;;;;;11.15;3.47;;;;;;;3.69;74.00;103896.78;7392569;19;20025;-56
2022/03/18 02:51:37;;;;;;;11.13;3.65;;;;;;;3.62;74.25;103895.72;7395348;19;20030;-59
2022/03/18 02:54:07;;;;;;;12.88;3.72;;;;;;;3.57;74.59;103891.19;7391630;19;20018;-60
2022/03/18 02:56:38;;;;;;;12.20;3.42;;;;;;;3.58;74.90;103886.06;7393985;19;20021;-60
2022/03/18 02:59:07;;;;;;;8.30;3.77;;;;;;;3.52;74.98;103887.53;7393957;19;20017;-59
2022/03/18 03:01:36;;;;;;;11.43;4.10;;;;;;;3.71;74.86;103889.03;7397358;19;20022;-59
2022/03/18 03:04:05;;;;;;;12.27;4.10;;;;;;;3.81;74.19;103883.34;7391045;19;20018;-60
2022/03/18 03:09:16;;;;;;;8.95;3.78;;;;;;;3.93;73.51;103885.47;7392987;19;20039;-58
2022/03/18 03:11:48;;;;;;;11.02;3.78;;;;;;;4.05;73.49;103897.97;7399828;19;20056;-59
2022/03/18 03:14:17;;;;;;;11.20;4.07;;;;;;;4.03;72.48;103910.88;7396548;19;20023;-58
2022/03/18 03:16:46;;;;;;;12.27;3.83;;;;;;;3.79;73.40;103897.97;7392628;19;20015;-58
2022/03/18 03:19:16;;;;;;;12.88;3.70;;;;;;;3.56;74.59;103898.06;7391731;19;20074;-59
2022/03/18 03:21:45;;;;;;;9.77;3.63;;;;;;;3.56;75.12;103912.75;7392293;19;20026;-54
2022/03/18 03:24:14;;;;;;;10.80;4.25;;;;;;;3.56;75.20;103907.56;7392618;19;20021;-61
2022/03/18 03:26:43;;;;;;;10.65;4.43;;;;;;;3.59;74.95;103905.06;7390369;19;20018;-59
2022/03/18 03:29:14;;;;;;;9.07;3.90;;;;;;;3.40;75.80;103917.38;7391553;19;20018;-59
2022/03/18 03:31:43;;;;;;;10.13;4.10;;;;;;;3.62;75.49;103921.63;7391785;19;20092;-59
2022/03/18 03:34:14;;;;;;;15.05;4.65;;;;;;;3.84;74.79;103905.91;7391914;19;20399;-59
2022/03/18 03:36:43;;;;;;;11.57;4.97;;;;;;;3.68;75.10;103926.13;7391384;19;20035;-59
2022/03/18 03:39:12;;;;;;;17.42;4.90;;;;;;;3.64;75.56;103932.94;7390733;19;20073;-59
2022/03/18 03:41:41;;;;;;;13.68;4.63;;;;;;;3.78;75.35;103930.81;7391107;19;20010;-59
2022/03/18 03:44:10;;;;;;;9.27;4.38;;;;;;;3.85;74.91;103933.63;7391070;19;20049;-60
2022/03/18 03:46:41;;;;;;;15.30;4.45;;;;;;;3.88;74.53;103929.41;7389169;19;20017;-59
2022/03/18 03:49:10;;;;;;;12.73;3.85;;;;;;;3.82;74.18;103929.19;7390310;19;20455;-58
2022/03/18 03:51:39;;;;;;;14.90;4.53;;;;;;;3.54;75.47;103932.53;7390501;19;20022;-60
2022/03/18 03:54:08;;;;;;;16.38;5.15;;;;;;;3.46;76.16;103935.75;7387931;19;20063;-58
2022/03/18 03:56:37;;;;;;;14.18;5.40;;;;;;;3.68;75.34;103949.47;7390656;19;20041;-59
2022/03/18 03:59:05;;;;;;;14.38;4.68;;;;;;;3.76;74.76;103953.22;7388163;19;20015;-60
2022/03/18 04:01:34;;;;;;;11.35;4.45;;;;;;;3.66;75.11;103953.72;7387706;19;20048;-59
2022/03/18 04:04:06;;;;;;;13.13;4.22;;;;;;;3.64;75.27;103950.22;7388674;19;20463;-60
2022/03/18 04:06:35;;;;;;;11.45;4.28;;;;;;;3.56;76.02;103954.22;7389862;19;20436;-60
2022/03/18 04:09:04;;;;;;;15.30;5.05;;;;;;;3.64;75.10;103953.66;7390965;19;20025;-60
2022/03/18 04:11:33;;;;;;;12.40;4.85;;;;;;;3.71;75.31;103959.97;7389750;19;20016;-59
2022/03/18 04:14:02;;;;;;;16.05;4.63;;;;;;;3.63;75.68;103962.28;7387853;19;20018;-58
2022/03/18 04:16:31;;;;;;;14.10;5.47;;;;;;;3.67;75.75;103967.56;7390512;19;20400;-59
2022/03/18 04:18:59;;;;;;;18.30;6.43;;;;;;;3.41;76.56;103970.09;7389585;19;20114;-60
2022/03/18 04:21:31;;;;;;;12.55;5.70;;;;;;;3.36;76.63;103969.94;7389748;19;20014;-60
2022/03/18 04:24:00;;;;;;;19.77;6.05;;;;;;;3.39;76.77;103975.22;7382241;19;20038;-62
2022/03/18 04:26:29;;;;;;;17.80;6.00;;;;;;;3.50;76.92;103972.16;7388776;19;20022;-59
2022/03/18 04:28:58;;;;;;;13.35;5.53;;;;;;;3.44;77.21;103965.06;7389912;19;20325;-60
2022/03/18 04:31:26;;;;;;;20.92;7.13;;;;;;;3.55;76.85;103965.41;7390033;19;20345;-59
2022/03/18 04:33:55;;;;;;;19.00;6.45;;;;;;;3.54;76.82;103976.63;7387607;19;20018;-60
2022/03/18 04:36:24;;;;;;;16.63;6.30;;;;;;;3.55;76.84;103968.88;7389348;19;20011;-59
2022/03/18 04:38:56;;;;;;;19.00;6.60;;;;;;;3.60;76.94;103969.94;7389563;19;20511;-60
2022/03/18 04:41:25;;;;;;;19.58;6.05;;;;;;;3.67;76.70;103971.06;7388903;19;20060;-59
2022/03/18 04:43:54;;;;;;;16.73;7.03;;;;;;;3.68;76.55;103975.41;7387569;19;20491;-60
2022/03/18 04:46:23;;;;;;;17.10;6.57;;;;;;;3.55;76.81;103981.84;7388786;19;20543;-60
2022/03/18 04:48:51;;;;;;;15.23;6.15;;;;;;;3.52;77.72;103983.47;7388537;19;20019;-60
2022/03/18 04:51:20;;;;;;;18.30;6.65;;;;;;;3.56;77.35;103991.41;7388284;19;20011;-59
2022/03/18 04:53:49;;;;;;;20.35;7.45;;;;;;;3.43;77.80;103990.06;7386985;19;20014;-60
2022/03/18 04:59:03;;;;;;;14.63;6.00;;;;;;;3.57;76.93;103995.78;7388359;19;20034;-59
2022/03/18 05:01:32;;;;;;;19.58;6.72;;;;;;;3.56;77.00;103996.59;7390946;19;20623;-60
2022/03/18 05:04:01;;;;;;;14.80;5.95;;;;;;;3.71;76.38;104000.56;7387670;19;20021;-60
2022/03/18 05:06:30;;;;;;;15.77;6.75;;;;;;;3.73;76.58;104001.53;7387376;19;20015;-60
2022/03/18 05:08:59;;;;;;;11.63;5.65;;;;;;;3.61;76.88;104009.72;7388231;19;20018;-60
2022/03/18 05:11:31;;;;;;;16.48;6.60;;;;;;;3.29;77.85;104020.69;7412945;19;20029;-59
2022/03/18 05:14:00;;;;;;;14.57;6.32;;;;;;;3.36;78.33;104021.78;7395474;19;20060;-60
2022/03/18 05:16:29;;;;;;;20.65;7.07;;;;;;;3.55;77.21;104022.47;7389230;19;20015;-60
2022/03/18 05:18:58;;;;;;;18.38;6.60;;;;;;;3.49;77.32;104030.91;7388871;19;20018;-60
2022/03/18 05:21:28;;;;;;;15.57;6.00;;;;;;;3.51;77.09;104025.75;7388556;19;20019;-60
2022/03/18 05:23:57;;;;;;;13.95;6.40;;;;;;;3.62;77.01;104027.03;7387365;19;20448;-61
2022/03/18 05:26:26;;;;;;;19.02;6.55;;;;;;;3.56;77.09;104025.09;7387623;19;20122;-59
2022/03/18 05:28:58;;;;;;;13.02;5.78;;;;;;;3.50;77.87;104035.25;7388857;19;20021;-60
2022/03/18 05:31:27;;;;;;;14.95;5.47;;;;;;;3.31;78.54;104033.69;7388508;19;20344;-60
2022/03/18 05:33:57;;;;;;;13.98;5.53;;;;;;;3.29;78.66;104044.00;7386766;19;20040;-59
2022/03/18 05:36:25;;;;;;;13.40;5.85;;;;;;;3.30;78.54;104052.66;7388365;19;20022;-60
2022/03/18 05:38:55;;;;;;;16.30;6.35;;;;;;;3.51;77.95;104055.19;7388285;19;20011;-60
2022/03/18 05:41:24;;;;;;;10.18;5.25;;;;;;;3.46;77.60;104052.41;7387543;19;20493;-60
2022/03/18 05:43:52;;;;;;;9.98;5.20;;;;;;;3.27;79.11;104048.22;7386585;19;20408;-60
2022/03/18 05:46:24;;;;;;;15.23;5.45;;;;;;;3.21;79.39;104044.50;7387273;19;20018;-61
2022/03/18 05:48:53;;;;;;;14.18;6.10;;;;;;;3.13;79.24;104048.53;7387715;19;20474;-60
2022/03/18 05:51:24;;;;;;;13.10;6.22;;;;;;;3.14;79.11;104052.88;7387582;19;20018;-60
2022/03/18 05:53:52;;;;;;;16.58;5.85;;;;;;;3.17;79.55;104047.84;7385284;19;20044;-59
2022/03/18 05:59:03;;;;;;;14.75;5.70;;;;;;;3.30;78.56;104063.03;7387250;19;20010;-60
2022/03/18 06:01:37;;;;;;;13.15;6.70;;;;;;;3.26;78.80;104069.78;7390052;19;20018;-58
2022/03/18 06:04:07;;;;;;;20.38;6.85;;;;;;;3.14;78.90;104082.28;7386667;19;20486;-59
2022/03/18 06:06:36;;;;;;;15.43;7.07;;;;;;;3.05;79.44;104072.44;7386611;19;20049;-60
2022/03/18 06:11:52;;;;;;;17.25;6.25;;;;;;;3.18;79.88;104080.66;7387128;19;20018;-60
2022/03/18 06:14:24;;;;;;;17.08;5.95;;;;;;;3.29;79.25;104077.69;7387827;19;20018;-59
2022/03/18 06:16:57;;;;;;;17.80;6.95;;;;;;;3.39;78.86;104078.91;7387578;19;20018;-58
2022/03/18 06:19:27;;;;;;;51.88;24.58;;;;;;;3.39;78.68;104088.41;7386067;19;20364;-59
2022/03/18 06:21:58;;;;;;;17.38;6.68;;;;;;;3.28;79.25;104094.06;7391453;19;20038;-59
2022/03/18 06:24:28;;;;;;;14.70;6.15;;;;;;;3.35;78.95;104102.06;7394165;19;20022;-59
2022/03/18 06:26:57;;;;;;;16.67;5.55;;;;;;;3.33;79.02;104114.09;7393618;19;20021;-59
2022/03/18 06:29:26;;;;;;;24.85;9.98;;;;;;;3.39;79.28;104107.44;7393489;19;20029;-60
2022/03/18 06:31:59;;;;;;;16.90;5.85;;;;;;;3.35;79.15;104104.66;7393881;19;20011;-59
2022/03/18 06:34:28;;;;;;;11.57;5.57;;;;;;;3.41;78.85;104110.97;7394041;19;20014;-58
2022/03/18 06:37:00;;;;;;;19.40;6.43;;;;;;;3.41;79.18;104110.97;7392350;19;20019;-59
2022/03/18 06:39:29;;;;;;;14.05;5.55;;;;;;;3.43;79.05;104111.91;7392973;19;20022;-59
2022/03/18 06:41:58;;;;;;;12.18;5.47;;;;;;;3.44;79.11;104118.00;7393539;19;20021;-59
2022/03/18 06:44:27;;;;;;;19.48;5.93;;;;;;;3.56;79.36;104117.59;7394086;19;20018;-58
2022/03/18 06:46:58;;;;;;;13.90;6.13;;;;;;;3.54;79.12;104114.94;7392283;19;20021;-58
2022/03/18 06:49:27;;;;;;;20.35;6.53;;;;;;;3.42;79.66;104114.44;7393621;19;20333;-59
2022/03/18 06:51:56;;;;;;;12.68;5.45;;;;;;;3.45;79.79;104127.53;7392982;19;20002;-54
2022/03/18 06:54:25;;;;;;;14.52;6.28;;;;;;;3.49;80.18;104125.94;7393375;19;20483;-60
2022/03/18 06:56:54;;;;;;;20.45;6.13;;;;;;;3.66;80.17;104134.38;7392994;19;20073;-58
2022/03/18 06:59:23;;;;;;;13.95;6.05;;;;;;;3.79;79.43;104131.41;7392678;19;20018;-60
2022/03/18 07:01:53;;;;;;;14.85;5.30;;;;;;;3.75;79.50;104133.00;7396913;19;20030;-60
2022/03/18 07:04:25;;;;;;;14.57;6.15;;;;;;;3.74;79.73;104136.44;7394129;19;20605;-60
2022/03/18 07:06:54;;;;;;;15.48;6.68;;;;;;;3.88;79.56;104136.94;7391734;19;20025;-59
2022/03/18 07:09:22;;;;;;;15.60;6.80;;;;;;;4.06;78.70;104135.88;7403940;19;20021;-58
2022/03/18 07:11:51;;;;;;;15.90;7.30;;;;;;;4.12;78.89;104141.28;7414584;19;20021;-60
2022/03/18 07:14:20;;;;;;;17.25;6.90;;;;;;;4.16;78.78;104141.44;7394609;19;20010;-59
2022/03/18 07:19:33;;;;;;;18.73;7.18;;;;;;;4.36;78.87;104143.88;7393744;19;20460;-58
2022/03/18 07:22:03;;;;;;;16.30;7.93;;;;;;;4.43;78.63;104150.19;7388645;19;20037;-59
2022/03/18 07:24:32;;;;;;;17.15;8.68;;;;;;;4.51;78.31;104156.50;7393581;19;20483;-59
2022/03/18 07:27:01;;;;;;;19.73;9.40;;;;;;;4.58;77.93;104166.28;7392918;19;20010;-59
2022/03/18 07:29:30;;;;;;;21.38;9.65;;;;;;;4.68;77.38;104170.09;7393291;19;20020;-58
2022/03/18 07:31:59;;;;;;;22.55;10.90;;;;;;;4.82;76.67;104171.44;7393806;19;20049;-58
2022/03/18 07:34:28;;;;;;;25.05;11.13;;;;;;;5.02;76.20;104185.09;7394182;19;20011;-58
2022/03/18 07:37:00;;;;;;;30.73;13.93;;;;;;;5.06;75.15;104185.19;7393879;19;20025;-58
2022/03/18 07:39:29;;;;;;;28.58;12.70;;;;;;;5.11;75.02;104175.84;7392959;19;20109;-57
2022/03/18 07:41:58;;;;;;;21.30;10.57;;;;;;;5.20;74.86;104184.84;7393062;19;20111;-58
2022/03/18 07:44:26;;;;;;;18.98;9.75;;;;;;;5.33;74.52;104178.31;7392660;19;20011;-54
2022/03/18 07:46:55;;;;;;;20.20;9.25;;;;;;;5.35;74.24;104179.22;7392097;19;20010;-53
2022/03/18 07:49:24;;;;;;;19.52;9.50;;;;;;;5.51;73.87;104172.78;7392145;19;20033;-57
2022/03/18 07:51:53;;;;;;;19.25;9.15;;;;;;;5.52;73.92;104176.28;7394219;19;20018;-59
2022/03/18 07:54:25;;;;;;;18.85;8.60;;;;;;;5.69;73.15;104169.88;7393807;19;20766;-58
2022/03/18 07:56:54;;;;;;;22.23;9.02;;;;;;;5.93;72.65;104171.47;7394516;19;20021;-60
2022/03/18 07:59:23;;;;;;;21.90;9.48;;;;;;;5.87;72.26;104174.78;7391781;19;20348;-57
2022/03/18 08:01:52;;;;;;;18.67;8.52;;;;;;;6.00;71.37;104181.25;7395520;19;20086;-57
2022/03/18 08:04:20;;;;;;;16.15;7.63;;;;;;;6.15;71.30;104182.53;7392514;19;20018;-58
2022/03/18 08:06:50;;;;;;;19.55;8.48;;;;;;;6.27;71.15;104188.06;7391886;19;20014;-57
2022/03/18 08:09:19;;;;;;;18.65;7.95;;;;;;;6.38;70.59;104189.25;7391721;19;20018;-58
2022/03/18 08:11:51;;;;;;;33.28;10.48;;;;;;;6.50;70.54;104199.13;7392121;19;20125;-59
2022/03/18 08:14:20;;;;;;;18.33;8.20;;;;;;;6.56;69.38;104201.91;7391110;19;20018;-58
2022/03/18 08:16:49;;;;;;;20.50;8.27;;;;;;;6.67;69.45;104211.75;7392765;19;20014;-61
2022/03/18 08:19:18;;;;;;;16.02;8.73;;;;;;;6.74;69.05;104213.69;7391269;19;20010;-56
2022/03/18 08:21:47;;;;;;;20.42;9.35;;;;;;;6.86;69.54;104214.00;7392048;19;20018;-57
2022/03/18 08:24:16;;;;;;;21.23;8.27;;;;;;;7.04;69.16;104215.31;7391893;19;20006;-58
2022/03/18 08:26:45;;;;;;;21.58;8.95;;;;;;;7.16;67.81;104219.97;7391356;19;20018;-59
2022/03/18 08:29:17;;;;;;;18.83;8.02;;;;;;;7.16;68.27;104228.66;7391323;19;20014;-59
2022/03/18 08:31:45;;;;;;;21.73;8.60;;;;;;;7.26;68.02;104225.44;7392010;19;20316;-57
2022/03/18 08:34:15;;;;;;;23.85;9.15;;;;;;;7.32;67.58;104229.94;7391359;19;20011;-58
2022/03/18 08:36:43;;;;;;;28.10;9.63;;;;;;;7.42;68.44;104237.13;7369095;19;20018;-59
2022/03/18 08:39:12;;;;;;;23.58;9.45;;;;;;;7.55;68.09;104227.88;7389354;19;20478;-57
2022/03/18 08:41:41;;;;;;;21.83;9.18;;;;;;;7.66;66.64;104235.94;7391343;19;20015;-57
2022/03/18 08:44:10;;;;;;;26.75;10.85;;;;;;;7.77;66.06;104244.91;7390489;19;20425;-59
2022/03/18 08:46:42;;;;;;;24.88;10.18;;;;;;;7.88;64.99;104252.09;7392188;19;20017;-59
2022/03/18 08:49:10;;;;;;;21.58;10.05;;;;;;;7.90;63.72;104250.41;7392626;19;20010;-58
2022/03/18 08:51:40;;;;;;;22.05;10.05;;;;;;;8.08;63.48;104253.44;7393135;19;20010;-58
2022/03/18 08:54:09;;;;;;;17.33;8.10;;;;;;;8.23;61.94;104247.63;7389486;19;20018;-57
2022/03/18 08:56:38;;;;;;;17.27;7.47;;;;;;;8.36;59.50;104261.84;7391639;19;20036;-55
2022/03/18 08:59:07;;;;;;;16.13;7.50;;;;;;;8.46;58.52;104255.09;7390141;19;20022;-59
2022/03/18 09:01:36;;;;;;;14.38;7.65;;;;;;;8.52;59.75;104254.34;7393358;19;20025;-60
2022/03/18 09:04:07;;;;;;;20.23;7.72;;;;;;;8.57;59.35;104266.66;7389280;19;20022;-58
2022/03/18 09:06:36;;;;;;;23.80;7.90;;;;;;;8.85;58.07;104271.53;7390340;19;20018;-61
2022/03/18 09:09:05;;;;;;;19.10;7.00;;;;;;;9.02;57.58;104274.47;7398661;19;20021;-60
2022/03/18 09:11:34;;;;;;;16.63;7.25;;;;;;;9.02;56.59;104275.34;7417956;19;20018;-58
2022/03/18 09:14:03;;;;;;;19.75;7.15;;;;;;;9.18;55.85;104274.78;7392627;19;20021;-59
2022/03/18 09:16:36;;;;;;;15.32;6.32;;;;;;;9.37;55.05;104279.41;7398914;19;20018;-59
2022/03/18 09:19:08;;;;;;;13.00;6.07;;;;;;;9.44;54.55;104274.34;7393481;19;20038;-59
2022/03/18 09:21:37;;;;;;;12.50;6.03;;;;;;;9.55;54.30;104279.72;7396384;19;20017;-59
2022/03/18 09:24:08;;;;;;;16.33;7.03;;;;;;;9.66;54.58;104285.13;7389565;19;20044;-60
2022/03/18 09:26:37;;;;;;;16.23;6.88;;;;;;;9.87;53.82;104276.69;7390727;19;20023;-59
2022/03/18 09:29:06;;;;;;;17.67;6.85;;;;;;;10.03;54.49;104277.81;7392332;19;20010;-58
2022/03/18 09:31:36;;;;;;;16.65;6.47;;;;;;;9.86;54.29;104274.97;7393649;19;20011;-59
2022/03/18 09:34:08;;;;;;;15.35;7.00;;;;;;;10.05;53.91;104281.34;7391620;19;20068;-60
2022/03/18 09:36:37;;;;;;;12.53;5.27;;;;;;;10.00;51.69;104285.63;7393814;19;20023;-59
2022/03/18 09:39:05;;;;;;;8.90;4.53;;;;;;;10.07;50.99;104282.22;7393923;19;20014;-58
2022/03/18 09:41:34;;;;;;;12.38;5.30;;;;;;;10.32;51.20;104285.19;7394215;19;20034;-58
2022/03/18 09:44:03;;;;;;;12.75;5.45;;;;;;;10.57;50.42;104294.25;7387261;19;20019;-59
2022/03/18 09:46:32;;;;;;;11.85;5.15;;;;;;;10.71;51.03;104304.91;7393397;19;20086;-59
2022/03/18 09:49:02;;;;;;;14.60;5.22;;;;;;;10.80;49.03;104305.00;7393711;19;20014;-59
2022/03/18 09:51:33;;;;;;;13.07;5.15;;;;;;;10.98;49.46;104313.97;7392004;19;20018;-60
2022/03/18 09:54:02;;;;;;;16.42;6.20;;;;;;;11.24;49.93;104312.44;7390329;19;20094;-59
2022/03/18 09:56:31;;;;;;;11.45;4.93;;;;;;;11.39;48.47;104319.59;7395170;19;20011;-59
2022/03/18 09:59:00;;;;;;;17.08;4.75;;;;;;;11.36;49.11;104314.31;7399464;19;20316;-58
2022/03/18 10:01:29;;;;;;;12.80;4.15;;;;;;;11.50;48.56;104321.44;7401646;19;20038;-59
2022/03/18 10:04:05;;;;;;;8.43;4.25;;;;;;;11.50;48.64;104310.91;7394774;19;20028;-58
2022/03/18 10:06:38;;;;;;;12.50;4.93;;;;;;;11.50;48.32;104317.03;7398590;19;20519;-58
2022/03/18 10:09:08;;;;;;;16.88;4.88;;;;;;;11.45;49.11;104324.03;7396149;19;20082;-58
2022/03/18 10:11:40;;;;;;;9.88;4.03;;;;;;;11.55;49.33;104317.09;7398099;19;20055;-58
2022/03/18 10:14:10;;;;;;;11.63;4.68;;;;;;;11.81;49.05;104312.03;7392123;19;20029;-56
2022/03/18 10:16:41;;;;;;;12.02;4.20;;;;;;;11.98;48.25;104324.41;7397523;19;20462;-58
2022/03/18 10:19:12;;;;;;;8.15;3.58;;;;;;;11.99;48.11;104313.91;7396854;19;20018;-60
2022/03/18 10:21:58;;;;;;;10.10;3.72;;;;;;;12.21;48.09;104309.66;7395375;19;20015;-57
2022/03/18 10:24:30;;;;;;;12.07;4.35;;;;;;;12.17;47.58;104310.53;7394126;19;20348;-59
2022/03/18 10:27:14;;;;;;;9.15;3.83;;;;;;;12.13;47.55;104313.13;7396551;19;20040;-58
2022/03/18 10:29:44;;;;;;;13.80;4.03;;;;;;;12.29;47.85;104307.06;7391425;19;20014;-59
2022/03/18 10:32:14;;;;;;;9.43;4.13;;;;;;;12.21;47.63;104307.03;7396125;19;20014;-57
2022/03/18 10:37:41;;;;;;;;;;;;;;;12.56;47.41;104305.44;7397821;19;20018;-60
2022/03/18 10:40:11;;;;;;;14.82;4.60;;;;;;;12.54;47.29;104313.31;7395502;19;19960;-60
2022/03/18 10:42:40;;;;;;;9.65;3.72;;;;;;;12.65;47.31;104315.97;7395764;19;20015;-60
2022/03/18 10:45:10;;;;;;;10.98;4.55;;;;;;;12.59;47.94;104311.59;7396332;19;20340;-59
2022/03/18 10:47:41;;;;;;;22.65;5.65;;;;;;;13.00;47.56;104309.06;7394964;19;20479;-59
2022/03/18 10:50:23;;;;;;;10.60;4.72;;;;;;;12.92;46.97;104301.13;7395393;19;20022;-59
2022/03/18 10:53:12;;;;;;;11.43;4.25;;;;;;;12.57;47.52;104312.47;7393769;19;20026;-59
2022/03/18 10:55:42;;;;;;;9.77;4.50;;;;;;;12.53;48.31;104310.69;7395536;19;20023;-60
2022/03/18 10:58:15;;;;;;;10.30;4.63;;;;;;;12.69;48.17;104315.13;7395608;19;20018;-59
2022/03/18 11:00:46;;;;;;;11.10;4.20;;;;;;;12.59;48.36;104313.34;7395757;19;20485;-58
2022/03/18 11:03:16;;;;;;;10.57;4.47;;;;;;;12.60;48.09;104317.72;7393577;19;20586;-57
2022/03/18 11:05:47;;;;;;;15.98;4.72;;;;;;;12.91;48.45;104325.69;7394249;19;20352;-60
2022/03/18 11:08:22;;;;;;;10.70;4.60;;;;;;;12.87;48.43;104321.31;7392587;19;20061;-63
2022/03/18 11:13:38;;;;;;;12.13;5.10;;;;;;;12.92;48.35;104314.31;7421438;19;20101;-60
2022/03/18 11:16:08;;;;;;;11.55;5.15;;;;;;;12.83;48.24;104320.44;7395295;19;20030;-60
2022/03/18 11:18:38;;;;;;;11.48;4.63;;;;;;;12.91;48.56;104313.44;7394862;19;20107;-60
2022/03/18 11:21:09;;;;;;;11.52;4.93;;;;;;;12.82;48.90;104313.41;7394283;19;20007;-60
2022/03/18 11:23:42;;;;;;;10.85;4.28;;;;;;;12.91;48.99;104309.91;7392491;19;20050;-59
2022/03/18 11:26:14;;;;;;;12.57;5.40;;;;;;;13.05;48.19;104304.66;7394784;19;20048;-60
2022/03/18 11:28:44;;;;;;;8.43;4.45;;;;;;;13.08;48.07;104317.84;7392651;19;20031;-58
2022/03/18 11:31:17;;;;;;;12.15;4.85;;;;;;;12.87;48.40;104313.44;7394019;19;20144;-59
2022/03/18 11:34:11;;;;;;;10.10;5.45;;;;;;;13.11;47.85;104316.09;7392600;19;20026;-60
2022/03/18 11:36:47;;;;;;;8.05;4.45;;;;;;;13.16;48.62;104314.31;7370821;19;20115;-59
2022/03/18 11:39:24;;;;;;;9.00;5.35;;;;;;;13.33;48.39;104313.47;7394042;19;20022;-59
2022/03/18 11:41:58;;;;;;;11.60;4.90;;;;;;;13.32;47.65;104317.88;7393826;19;20021;-60
2022/03/18 11:44:52;;;;;;;13.93;5.72;;;;;;;13.26;47.51;104309.09;7394456;19;20014;-61
2022/03/18 11:50:50;;;;;;;12.70;5.00;;;;;;;13.33;48.64;104305.56;7392871;19;20014;-57
2022/03/18 11:53:48;;;;;;;12.60;5.18;;;;;;;13.20;48.37;104309.09;7392385;19;20119;-60
2022/03/18 11:56:21;;;;;;;10.75;5.07;;;;;;;13.16;48.40;104303.78;7394426;19;20018;-58
2022/03/18 11:58:50;;;;;;;15.02;6.05;;;;;;;13.41;48.37;104298.59;7394885;19;20133;-60
2022/03/18 12:01:41;;;;;;;10.98;5.28;;;;;;;13.70;47.61;104309.97;7395924;19;20041;-60
2022/03/18 12:04:11;;;;;;;12.25;5.70;;;;;;;13.57;47.95;104306.47;7391714;19;20487;-59
2022/03/18 12:07:14;;;;;;;15.05;5.60;;;;;;;13.82;47.44;104299.41;7393210;19;20491;-59